Aérodrome :
LOGIN :

S'inscrire | Disclaimer

   EN    FR    IT 

 










Légende :    VFR   VFR Marginal   IFR   IFR Intensif   IFR Très Intensif
Visi : 
Plafond : 
>= 8 km
>= 3000ft
5 à 8 km
1000 à 3000 ft
1500m à 5 km
500 à 1000 ft
800 à 1500m
200 à 500 ft
< 800m
< 200 ft
Symboles :   Orages  Brouillard  Fortes neiges  Fortes précipitations  Vent > 20 kt
SIGMETs :   Divers  Orages  Givrage  Turbulence  Onde Orograph.  Cendres Volcan.







- Altitude de l'aérodrome : 18 ft
- Code IATA : AJA
- Voir les cartes d'approche


LFKJ - Ajaccio

DERNIER METAR :
  • 170900Z AUTO VRB01KT 9999 BKN064 OVC078 19/16 Q1014 TEMPO BKN030 FEW035CB OVC050

METARs EXPIRÉS :
  • 170830Z AUTO VRB02KT 9999 OVC064 18/17 Q1014 TEMPO BKN030 FEW035CB OVC050
  • 170800Z AUTO 03003KT 9999 OVC070 18/16 Q1013 TEMPO RA FEW030CB BKN080
  • 170730Z AUTO 04004KT 9999 OVC076 17/16 Q1013 TEMPO RA FEW030CB BKN080
  • 170700Z AUTO 03004KT 9999 FEW076 SCT096 BKN140 17/16 Q1014 TEMPO RA FEW030CB BKN080
  • 170630Z AUTO VRB03KT 9999 BKN084 BKN100 OVC130 17/15 Q1014 TEMPO RA FEW030CB BKN080

TAF TAF LFKJ
Valide du 17 à 09h jusqu'au 18 à 09h UTC


170800Z 1709/1809 05005KT 9999 FEW030 OVC070
TEMPO 1709/1715 -RA BKN030 FEW035CB OVC050
TEMPO 1715/1721 BKN010
BECMG 1722/1724 SCT090
ATIS : +33 4 95 23 59 85
Pas de NOTAMs connus pour ce terrain.



MET'MAP, la Météo Aéronautique d'un coup d'oeil ! - Copyright ORBIFLY Décembre 2007 - Disclaimer

ORBIFLY MET'MAP TEAM :

Programmation & Développement : Alexandra Zaïnal
Conception & Développement : Baudouin d'Aumeries
Co-Programmation & Développement : Marc-Olivier Méhu
Soutien technique & logistique : Manuel Goepfert

Contact : metmap@orbifly.com




SOURCES & CREDITS :

   NOAA